Time;durP1;ratioP1;P1;durP2;ratioP2;P2;SDS_P1;SDS_P2;PMS_P1;PMS_P2;Temp;Humidity;BMP_temperature;BMP_pressure;BME280_temperature;BME280_humidity;BME280_pressure;Samples;Min_cycle;Max_cycle;Signal;HPM_P1;HPM_P2
2024/04/10 00:00:01;;;;;;;3.38;1.40;;;;;;;5.11;100.00;96802.50;1089148;27;19999;-73
2024/04/10 00:00:31;;;;;;;1.83;1.50;;;;;;;5.18;100.00;96808.50;1074956;27;20010;-72
2024/04/10 00:01:05;;;;;;;1.60;1.38;;;;;;;5.11;100.00;96794.69;1081436;27;20003;-71
2024/04/10 00:01:36;;;;;;;4.57;1.45;;;;;;;5.17;100.00;96799.91;1082668;27;19999;-70
2024/04/10 00:02:06;;;;;;;3.40;1.67;;;;;;;5.15;100.00;96803.69;1089551;27;20668;-71
2024/04/10 00:02:37;;;;;;;2.65;1.73;;;;;;;5.12;100.00;96806.69;1101056;26;20348;-72
2024/04/10 00:03:07;;;;;;;3.05;1.45;;;;;;;5.08;100.00;96808.09;1102751;26;20008;-72
2024/04/10 00:03:38;;;;;;;1.45;1.33;;;;;;;5.06;100.00;96802.28;1095757;27;20001;-72
2024/04/10 00:04:08;;;;;;;1.73;1.10;;;;;;;5.10;100.00;96806.91;1091534;27;20046;-70
2024/04/10 00:04:38;;;;;;;1.98;1.70;;;;;;;5.09;100.00;96807.09;1075528;27;20527;-71
2024/04/10 00:05:09;;;;;;;2.10;1.50;;;;;;;5.05;100.00;96798.09;1082462;27;20013;-71
2024/04/10 00:05:39;;;;;;;3.47;1.50;;;;;;;5.12;100.00;96807.50;1082418;27;20043;-71
2024/04/10 00:06:10;;;;;;;1.80;1.30;;;;;;;5.11;100.00;96810.31;1082357;27;20710;-72
2024/04/10 00:06:40;;;;;;;3.17;1.67;;;;;;;5.13;100.00;96800.50;1082828;27;20009;-71
2024/04/10 00:07:11;;;;;;;1.98;1.60;;;;;;;5.12;100.00;96809.31;1075727;27;20090;-71
2024/04/10 00:07:42;;;;;;;1.38;1.27;;;;;;;5.10;100.00;96801.72;1096394;26;20002;-71
2024/04/10 00:08:12;;;;;;;2.28;1.40;;;;;;;5.12;100.00;96809.31;1089186;27;19995;-71
2024/04/10 00:08:43;;;;;;;2.97;1.58;;;;;;;5.12;100.00;96814.50;1096368;27;19993;-71
2024/04/10 00:09:13;;;;;;;2.03;1.30;;;;;;;5.06;100.00;96799.69;1084671;27;20015;-72
2024/04/10 00:09:44;;;;;;;1.92;1.50;;;;;;;5.13;100.00;96810.91;1081860;27;20007;-71
2024/04/10 00:10:14;;;;;;;2.78;1.30;;;;;;;5.08;100.00;96803.69;1082134;27;20007;-72
2024/04/10 00:10:45;;;;;;;1.42;1.33;;;;;;;5.06;100.00;96810.09;1089216;27;20002;-71
2024/04/10 00:11:21;;;;;;;2.00;1.38;;;;;;;5.03;100.00;96806.13;1082308;27;20003;-71
2024/04/10 00:11:51;;;;;;;4.38;1.40;;;;;;;5.05;100.00;96808.50;1090735;27;20006;-72
2024/04/10 00:12:22;;;;;;;1.40;1.30;;;;;;;5.05;100.00;96808.50;1097767;26;20233;-70
2024/04/10 00:12:52;;;;;;;1.48;1.38;;;;;;;5.07;100.00;96811.72;1100882;26;20044;-71
2024/04/10 00:13:23;;;;;;;1.95;1.40;;;;;;;5.09;100.00;96805.28;1103393;26;20008;-72
2024/04/10 00:13:53;;;;;;;2.67;1.60;;;;;;;5.09;100.00;96794.09;1096636;27;20048;-70
2024/04/10 00:14:23;;;;;;;2.65;1.65;;;;;;;5.14;100.00;96808.09;1096230;26;20504;-71
2024/04/10 00:14:54;;;;;;;4.22;1.65;;;;;;;5.14;100.00;96802.91;1096530;27;19998;-71
2024/04/10 00:15:24;;;;;;;1.70;1.48;;;;;;;5.10;100.00;96800.91;1089544;27;19998;-71
2024/04/10 00:15:58;;;;;;;3.33;1.65;;;;;;;5.17;100.00;96809.50;1083288;27;19999;-71
2024/04/10 00:16:28;;;;;;;4.53;1.50;;;;;;;5.11;100.00;96802.50;1089496;27;20013;-71
2024/04/10 00:16:59;;;;;;;2.60;1.60;;;;;;;5.12;100.00;96802.28;1096576;27;21056;-71
2024/04/10 00:17:29;;;;;;;2.75;1.50;;;;;;;5.16;100.00;96815.69;1090250;27;20002;-70
2024/04/10 00:18:00;;;;;;;2.03;1.50;;;;;;;5.14;100.00;96809.91;1095650;27;20013;-70
2024/04/10 00:18:31;;;;;;;1.92;1.15;;;;;;;5.08;100.00;96806.31;1096212;26;19997;-71
2024/04/10 00:19:02;;;;;;;2.95;1.58;;;;;;;5.04;100.00;96799.13;1082769;27;20048;-70
2024/04/10 00:19:32;;;;;;;1.60;1.23;;;;;;;5.09;100.00;96805.28;1095901;26;20469;-70
2024/04/10 00:20:03;;;;;;;2.25;1.35;;;;;;;5.11;100.00;96812.91;1096398;27;19994;-70
2024/04/10 00:20:34;;;;;;;3.17;1.25;;;;;;;5.11;100.00;96812.91;1103555;26;19993;-70
2024/04/10 00:21:04;;;;;;;4.15;1.58;;;;;;;5.10;100.00;96811.31;1102844;26;20000;-70
2024/04/10 00:21:35;;;;;;;1.58;1.17;;;;;;;5.10;100.00;96812.13;1096756;26;20553;-70
2024/04/10 00:22:05;;;;;;;2.80;1.52;;;;;;;5.17;100.00;96818.13;1096740;26;20014;-71
2024/04/10 00:22:36;;;;;;;2.42;1.58;;;;;;;5.18;100.00;96816.31;1103561;26;20075;-70
2024/04/10 00:23:06;;;;;;;2.67;1.50;;;;;;;5.16;100.00;96811.31;1103511;26;20001;-71
2024/04/10 00:23:37;;;;;;;2.15;1.48;;;;;;;5.12;100.00;96804.09;1096697;26;20077;-71
2024/04/10 00:24:07;;;;;;;1.85;1.48;;;;;;;5.17;100.00;96812.13;1103696;26;20092;-70
2024/04/10 00:24:38;;;;;;;1.45;1.35;;;;;;;5.13;100.00;96814.31;1096251;27;19998;-72
2024/04/10 00:25:08;;;;;;;3.42;1.15;;;;;;;5.10;100.00;96801.72;1096584;26;19998;-72
2024/04/10 00:25:38;;;;;;;2.40;1.42;;;;;;;5.16;100.00;96813.09;1082418;27;20067;-72
2024/04/10 00:26:09;;;;;;;2.70;1.20;;;;;;;5.14;100.00;96804.72;1082522;27;19999;-72
2024/04/10 00:26:39;;;;;;;1.63;1.50;;;;;;;5.15;100.00;96803.69;1082446;27;19995;-72
2024/04/10 00:27:11;;;;;;;6.20;1.85;;;;;;;5.17;100.00;96806.91;1082915;26;19999;-70
2024/04/10 00:27:41;;;;;;;3.08;1.52;;;;;;;5.15;100.00;96801.09;1089374;27;20969;-72
2024/04/10 00:28:12;;;;;;;3.75;1.58;;;;;;;5.17;100.00;96805.09;1089217;27;20007;-72
2024/04/10 00:28:42;;;;;;;1.77;1.30;;;;;;;5.19;100.00;96810.09;1089372;27;20069;-72
2024/04/10 00:29:12;;;;;;;4.88;1.45;;;;;;;5.18;100.00;96808.50;1089523;27;20002;-72
2024/04/10 00:29:43;;;;;;;6.72;1.55;;;;;;;5.22;100.00;96811.50;1084879;27;19998;-72
2024/04/10 00:30:13;;;;;;;7.28;2.10;;;;;;;5.20;100.00;96811.72;1089306;27;19998;-71
2024/04/10 00:30:44;;;;;;;2.80;1.42;;;;;;;5.20;100.00;96815.13;1089369;27;19998;-72
2024/04/10 00:31:14;;;;;;;3.83;1.63;;;;;;;5.21;100.00;96818.50;1089134;27;20082;-72
2024/04/10 00:31:50;;;;;;;2.08;1.52;;;;;;;5.19;100.00;96817.91;1096509;27;20009;-72
2024/04/10 00:32:21;;;;;;;1.20;1.10;;;;;;;5.24;100.00;96828.53;1090759;27;20002;-72
2024/04/10 00:32:51;;;;;;;5.32;1.63;;;;;;;5.28;100.00;96826.31;1089233;27;20097;-72
2024/04/10 00:33:22;;;;;;;1.90;1.70;;;;;;;5.25;100.00;96827.50;1087954;27;19995;-72
2024/04/10 00:33:52;;;;;;;1.73;1.60;;;;;;;5.27;100.00;96837.72;1096526;26;19994;-72
2024/04/10 00:34:23;;;;;;;2.03;1.33;;;;;;;5.25;100.00;96832.72;1096558;26;20718;-72
2024/04/10 00:34:53;;;;;;;2.20;1.45;;;;;;;5.20;100.00;96822.13;1089166;27;20010;-72
2024/04/10 00:35:24;;;;;;;2.75;1.35;;;;;;;5.24;100.00;96840.72;1089326;27;20013;-72
2024/04/10 00:35:55;;;;;;;3.42;1.27;;;;;;;5.23;100.00;96841.72;1096303;27;20002;-72
2024/04/10 00:36:26;;;;;;;2.45;1.50;;;;;;;5.24;100.00;96840.72;1084827;27;20003;-72
2024/04/10 00:36:57;;;;;;;2.80;1.35;;;;;;;5.14;100.00;96823.72;1083754;27;20456;-72
2024/04/10 00:37:27;;;;;;;1.42;1.30;;;;;;;5.20;100.00;96837.72;1089138;27;20010;-72
2024/04/10 00:37:58;;;;;;;1.60;1.50;;;;;;;5.16;100.00;96837.34;1089420;27;20006;-72
2024/04/10 00:38:30;;;;;;;3.13;1.13;;;;;;;5.15;100.00;96840.13;1089423;27;19998;-72
2024/04/10 00:39:00;;;;;;;2.88;1.48;;;;;;;5.12;100.00;96840.53;1082716;27;20458;-72
2024/04/10 00:39:31;;;;;;;1.85;1.30;;;;;;;5.10;100.00;96837.34;1095650;27;20073;-73
2024/04/10 00:40:02;;;;;;;1.63;1.40;;;;;;;4.98;100.00;96818.91;1096537;26;20012;-72
2024/04/10 00:40:32;;;;;;;2.10;1.65;;;;;;;5.11;100.00;96839.72;1103724;26;20041;-72
2024/04/10 00:41:04;;;;;;;2.13;1.67;;;;;;;5.12;100.00;96830.91;1103406;26;20628;-72
2024/04/10 00:41:34;;;;;;;2.00;1.50;;;;;;;5.19;100.00;96843.91;1092194;27;20613;-71
2024/04/10 00:42:05;;;;;;;2.13;1.50;;;;;;;5.22;100.00;96840.91;1089359;27;19998;-71
2024/04/10 00:42:35;;;;;;;1.73;1.55;;;;;;;5.23;100.00;96836.50;1089482;27;20006;-72
2024/04/10 00:43:06;;;;;;;3.80;1.58;;;;;;;5.21;100.00;96834.13;1081987;27;20074;-72
2024/04/10 00:43:36;;;;;;;3.67;1.48;;;;;;;5.22;100.00;96843.53;1082293;27;20383;-72
2024/04/10 00:44:07;;;;;;;1.40;1.30;;;;;;;5.24;100.00;96841.53;1084790;27;19999;-72
2024/04/10 00:44:45;;;;;;;4.85;1.60;;;;;;;5.14;100.00;96834.13;1089554;26;19998;-72
2024/04/10 00:45:16;;;;;;;1.92;1.30;;;;;;;5.19;100.00;96846.53;1086399;27;20014;-72
2024/04/10 00:45:52;;;;;;;2.55;1.55;;;;;;;5.17;100.00;96833.72;1089343;27;20005;-72
2024/04/10 00:46:22;;;;;;;1.67;1.20;;;;;;;5.20;100.00;96830.72;1089591;27;19994;-71
2024/04/10 00:46:53;;;;;;;2.50;1.50;;;;;;;5.17;100.00;96822.53;1096073;27;20089;-71
2024/04/10 00:47:24;;;;;;;2.45;1.65;;;;;;;5.17;100.00;96833.72;1089287;27;20002;-72
2024/04/10 00:47:54;;;;;;;2.10;1.52;;;;;;;5.18;100.00;96831.91;1089295;27;19998;-72
2024/04/10 00:48:25;;;;;;;4.70;1.60;;;;;;;5.16;100.00;96831.31;1082029;27;19999;-72
2024/04/10 00:48:55;;;;;;;2.42;1.58;;;;;;;5.16;100.00;96837.34;1089711;26;20010;-72
2024/04/10 00:49:26;;;;;;;1.75;1.58;;;;;;;5.08;100.00;96826.31;1088511;27;20077;-72
2024/04/10 00:49:56;;;;;;;3.28;1.70;;;;;;;5.12;100.00;96827.50;1081945;27;19995;-71
2024/04/10 00:50:27;;;;;;;3.80;1.60;;;;;;;5.15;100.00;96838.31;1103512;26;20001;-71
2024/04/10 00:50:58;;;;;;;2.63;1.58;;;;;;;5.09;100.00;96822.72;1089087;27;20006;-72
2024/04/10 00:51:28;;;;;;;1.90;1.48;;;;;;;5.09;100.00;96820.91;1082155;27;20231;-72
2024/04/10 00:51:59;;;;;;;2.80;1.48;;;;;;;5.11;100.00;96820.72;1088108;27;20014;-72
2024/04/10 00:52:29;;;;;;;2.72;1.60;;;;;;;5.09;100.00;96815.69;1075187;27;19999;-72
2024/04/10 00:53:00;;;;;;;5.45;1.80;;;;;;;5.09;100.00;96810.50;1089280;27;20021;-72
2024/04/10 00:53:30;;;;;;;3.65;1.98;;;;;;;5.13;100.00;96816.09;1071816;27;20089;-72
2024/04/10 00:54:02;;;;;;;1.77;1.52;;;;;;;5.09;100.00;96825.31;1089166;27;20013;-72
2024/04/10 00:54:33;;;;;;;2.63;1.70;;;;;;;5.09;100.00;96823.50;1096415;27;20001;-72
2024/04/10 00:55:04;;;;;;;2.33;2.08;;;;;;;4.97;100.00;96802.50;1096096;27;20280;-71
2024/04/10 00:55:34;;;;;;;1.75;1.25;;;;;;;5.09;100.00;96817.50;1088489;27;20600;-72
2024/04/10 00:56:05;;;;;;;4.03;1.63;;;;;;;5.12;100.00;96817.91;1075418;27;20011;-71
2024/04/10 00:56:35;;;;;;;4.03;1.52;;;;;;;5.13;100.00;96823.91;1069126;27;20842;-70
2024/04/10 00:57:06;;;;;;;2.38;1.35;;;;;;;4.95;100.00;96809.69;1088412;27;20014;-72
2024/04/10 00:57:37;;;;;;;2.35;1.30;;;;;;;5.07;100.00;96816.94;1088753;27;20069;-72
2024/04/10 00:58:07;;;;;;;2.28;1.55;;;;;;;5.06;100.00;96818.69;1095932;27;20337;-71
2024/04/10 00:58:38;;;;;;;2.22;1.63;;;;;;;5.08;100.00;96826.31;1096629;27;19994;-70
2024/04/10 00:59:08;;;;;;;3.45;1.30;;;;;;;5.07;100.00;96827.31;1096419;26;19997;-72
2024/04/10 00:59:39;;;;;;;1.55;1.33;;;;;;;5.07;100.00;96820.31;1095281;26;20001;-72
2024/04/10 01:00:10;;;;;;;1.90;1.52;;;;;;;5.10;100.00;96821.72;1068461;27;20019;-72
2024/04/10 01:00:40;;;;;;;3.45;1.60;;;;;;;5.05;100.00;96818.91;1083848;27;20030;-71
2024/04/10 01:01:11;;;;;;;3.33;1.80;;;;;;;5.11;100.00;96818.13;1089319;27;20012;-72
2024/04/10 01:01:41;;;;;;;2.08;1.85;;;;;;;5.11;100.00;96823.31;1082267;27;20006;-72
2024/04/10 01:02:12;;;;;;;3.53;1.77;;;;;;;5.06;100.00;96813.50;1082630;27;20003;-70
2024/04/10 01:02:42;;;;;;;3.22;1.70;;;;;;;5.07;100.00;96829.94;1082882;27;20123;-71
2024/04/10 01:03:13;;;;;;;2.55;1.70;;;;;;;5.06;100.00;96828.31;1096376;27;19998;-72
2024/04/10 01:03:44;;;;;;;6.97;1.70;;;;;;;5.02;100.00;96835.72;1089162;27;20002;-70
2024/04/10 01:04:14;;;;;;;3.15;1.92;;;;;;;4.98;100.00;96824.13;1079944;27;20095;-72
2024/04/10 01:04:45;;;;;;;2.20;1.70;;;;;;;5.05;100.00;96837.91;1103069;26;20085;-73
2024/04/10 01:05:15;;;;;;;2.78;1.70;;;;;;;5.08;100.00;96834.13;1095944;27;20001;-72
2024/04/10 01:05:56;;;;;;;2.42;1.55;;;;;;;5.00;100.00;96832.53;1089169;27;20347;-70
2024/04/10 01:06:30;;;;;;;2.20;1.65;;;;;;;4.97;100.00;96823.31;1089162;27;20002;-72
2024/04/10 01:07:06;;;;;;;2.40;1.60;;;;;;;4.97;100.00;96833.72;1085661;27;20441;-72
2024/04/10 01:07:37;;;;;;;2.15;1.60;;;;;;;5.02;100.00;96834.91;1085920;27;20031;-72
2024/04/10 01:08:07;;;;;;;7.20;1.77;;;;;;;5.05;100.00;96837.13;1082301;27;20230;-72
2024/04/10 01:08:38;;;;;;;2.25;1.67;;;;;;;5.04;100.00;96825.13;1084467;27;20612;-72
2024/04/10 01:09:08;;;;;;;3.00;1.83;;;;;;;5.06;100.00;96834.31;1083781;27;20011;-72
2024/04/10 01:09:39;;;;;;;8.27;1.90;;;;;;;5.06;100.00;96821.31;1095401;26;20002;-71
2024/04/10 01:10:09;;;;;;;3.17;1.92;;;;;;;5.05;100.00;96824.13;1108269;26;19996;-71
2024/04/10 01:10:40;;;;;;;2.88;1.80;;;;;;;5.00;100.00;96816.09;1101897;26;19993;-72
2024/04/10 01:11:10;;;;;;;3.35;1.80;;;;;;;5.04;100.00;96825.13;1089214;27;20026;-72
2024/04/10 01:11:41;;;;;;;3.75;1.92;;;;;;;5.05;100.00;96822.31;1082097;27;19991;-72
2024/04/10 01:12:11;;;;;;;2.60;1.70;;;;;;;5.07;100.00;96822.13;1096259;27;20330;-72
2024/04/10 01:12:45;;;;;;;2.10;1.70;;;;;;;5.06;100.00;96817.91;1088800;27;19995;-72
2024/04/10 01:13:18;;;;;;;4.05;2.28;;;;;;;5.02;100.00;96814.91;1089907;27;20002;-72
2024/04/10 01:13:49;;;;;;;1.67;1.35;;;;;;;5.00;100.00;96816.94;1080939;27;20230;-72
2024/04/10 01:14:19;;;;;;;3.30;1.70;;;;;;;5.05;100.00;96826.72;1090367;26;20282;-72
2024/04/10 01:14:50;;;;;;;4.05;2.17;;;;;;;5.07;100.00;96822.91;1095266;27;19994;-72
2024/04/10 01:15:20;;;;;;;3.72;1.77;;;;;;;5.07;100.00;96835.13;1088834;27;20462;-72
2024/04/10 01:15:51;;;;;;;4.43;2.05;;;;;;;5.06;100.00;96830.91;1082050;27;19998;-72
2024/04/10 01:16:21;;;;;;;3.92;1.80;;;;;;;5.03;100.00;96837.34;1082278;27;20724;-72
2024/04/10 01:16:52;;;;;;;3.88;1.80;;;;;;;5.04;100.00;96832.94;1073495;27;20888;-73
2024/04/10 01:17:22;;;;;;;3.00;2.05;;;;;;;5.01;100.00;96835.94;1075506;27;20498;-72
2024/04/10 01:17:53;;;;;;;2.42;1.55;;;;;;;5.00;100.00;96823.91;1075419;27;20011;-70
2024/04/10 01:18:23;;;;;;;5.38;1.77;;;;;;;5.02;100.00;96825.31;1084970;27;20077;-70
2024/04/10 01:18:53;;;;;;;2.25;2.05;;;;;;;5.01;100.00;96826.31;1096139;27;19994;-69
2024/04/10 01:19:24;;;;;;;2.03;1.55;;;;;;;5.00;100.00;96821.31;1097629;26;20002;-69
2024/04/10 01:19:54;;;;;;;2.10;1.83;;;;;;;5.04;100.00;96827.72;1096014;27;19993;-70
2024/04/10 01:20:25;;;;;;;2.47;1.85;;;;;;;5.04;100.00;96832.94;1089483;27;19998;-72
2024/04/10 01:20:55;;;;;;;2.90;1.73;;;;;;;5.06;100.00;96830.91;1089186;26;19994;-70
2024/04/10 01:21:26;;;;;;;4.13;2.05;;;;;;;5.08;100.00;96834.13;1103358;26;20863;-72
2024/04/10 01:21:56;;;;;;;2.00;1.65;;;;;;;5.08;100.00;96827.13;1103526;26;20066;-70
2024/04/10 01:22:26;;;;;;;5.43;1.92;;;;;;;5.08;100.00;96834.91;1103151;26;19997;-70
2024/04/10 01:23:02;;;;;;;2.40;1.85;;;;;;;5.10;100.00;96837.34;1088922;27;19991;-70
2024/04/10 01:23:32;;;;;;;2.17;1.75;;;;;;;5.00;100.00;96823.91;1083215;27;20796;-70
2024/04/10 01:24:03;;;;;;;3.30;1.75;;;;;;;5.12;100.00;96837.91;1090144;27;20241;-70
2024/04/10 01:24:33;;;;;;;4.30;1.95;;;;;;;5.10;100.00;96834.72;1097274;26;20010;-71
2024/04/10 01:25:04;;;;;;;2.78;1.90;;;;;;;5.09;100.00;96846.13;1096100;26;19998;-70
2024/04/10 01:25:34;;;;;;;2.35;2.00;;;;;;;5.05;100.00;96845.72;1089192;27;19995;-70
2024/04/10 01:26:05;;;;;;;2.33;2.00;;;;;;;5.09;100.00;96843.53;1089094;27;20002;-71
2024/04/10 01:26:35;;;;;;;2.22;1.73;;;;;;;5.01;100.00;96838.53;1082556;27;19999;-70
2024/04/10 01:27:05;;;;;;;3.45;1.95;;;;;;;5.01;100.00;96841.94;1081144;27;20008;-70
2024/04/10 01:27:36;;;;;;;3.83;1.95;;;;;;;5.00;100.00;96836.91;1089149;27;19994;-70
2024/04/10 01:28:07;;;;;;;3.40;1.98;;;;;;;5.01;100.00;96838.53;1086930;27;20006;-72
2024/04/10 01:28:38;;;;;;;2.20;2.00;;;;;;;5.04;100.00;96843.34;1085906;27;20635;-71
2024/04/10 01:29:09;;;;;;;2.78;1.98;;;;;;;5.04;100.00;96838.13;1082522;27;20059;-71
2024/04/10 01:29:39;;;;;;;2.97;1.83;;;;;;;5.02;100.00;96840.13;1082062;27;20010;-71
2024/04/10 01:30:10;;;;;;;3.03;1.98;;;;;;;5.02;100.00;96846.13;1088313;27;20014;-73
2024/04/10 01:30:40;;;;;;;2.05;1.70;;;;;;;4.97;100.00;96838.94;1089393;27;20013;-71
2024/04/10 01:31:11;;;;;;;2.08;1.77;;;;;;;5.02;100.00;96845.31;1089013;27;19994;-71
2024/04/10 01:31:41;;;;;;;2.20;1.80;;;;;;;5.00;100.00;96837.72;1096187;26;20001;-73
2024/04/10 01:32:12;;;;;;;5.07;2.58;;;;;;;5.03;100.00;96842.53;1087721;27;20073;-72
2024/04/10 01:32:42;;;;;;;2.35;1.80;;;;;;;5.04;100.00;96838.94;1089594;27;20005;-71
2024/04/10 01:33:12;;;;;;;3.63;2.03;;;;;;;4.98;100.00;96834.53;1091006;27;20013;-72
2024/04/10 01:33:43;;;;;;;3.03;2.05;;;;;;;5.03;100.00;96849.50;1075612;27;20011;-73
2024/04/10 01:34:13;;;;;;;2.78;1.73;;;;;;;5.00;100.00;96842.09;1096334;27;20334;-71
2024/04/10 01:34:44;;;;;;;3.22;2.05;;;;;;;5.02;100.00;96845.31;1096079;27;20090;-71
2024/04/10 01:35:14;;;;;;;3.00;1.90;;;;;;;5.02;100.00;96845.31;1096248;26;20017;-72
2024/04/10 01:35:45;;;;;;;5.63;2.17;;;;;;;4.99;100.00;96843.91;1110618;26;20015;-71
2024/04/10 01:36:15;;;;;;;1.98;1.70;;;;;;;5.01;100.00;96843.72;1117730;26;19999;-69
2024/04/10 01:36:46;;;;;;;2.45;1.90;;;;;;;5.02;100.00;96845.31;1110713;26;20000;-72
2024/04/10 01:37:17;;;;;;;2.58;1.85;;;;;;;5.02;100.00;96842.72;1103364;26;20004;-72
2024/04/10 01:37:47;;;;;;;2.10;1.90;;;;;;;4.99;100.00;96845.72;1102638;26;20595;-72
2024/04/10 01:38:18;;;;;;;2.15;1.70;;;;;;;4.98;100.00;96844.91;1089381;27;20006;-69
2024/04/10 01:38:50;;;;;;;2.25;1.80;;;;;;;5.06;100.00;96852.50;1089107;27;19995;-72
2024/04/10 01:39:20;;;;;;;2.35;2.00;;;;;;;5.01;100.00;96844.53;1088217;27;20382;-70
2024/04/10 01:39:51;;;;;;;1.80;1.70;;;;;;;5.05;100.00;96850.13;1091241;27;20278;-71
2024/04/10 01:40:22;;;;;;;2.08;1.60;;;;;;;5.06;100.00;96857.72;1097292;26;19997;-69
2024/04/10 01:40:52;;;;;;;2.47;1.98;;;;;;;5.06;100.00;96851.72;1110583;26;20795;-72
2024/04/10 01:41:23;;;;;;;4.15;2.20;;;;;;;5.05;100.00;96855.34;1095926;27;20013;-72
2024/04/10 01:41:53;;;;;;;3.15;1.90;;;;;;;5.01;100.00;96854.94;1075166;27;20056;-73
2024/04/10 01:42:23;;;;;;;6.57;1.65;;;;;;;4.98;100.00;96850.13;1082054;27;20003;-72
2024/04/10 01:42:54;;;;;;;3.63;2.13;;;;;;;5.04;100.00;96858.94;1082321;27;20006;-72
2024/04/10 01:43:24;;;;;;;3.35;1.90;;;;;;;5.04;100.00;96854.53;1086914;27;20002;-72
2024/04/10 01:43:55;;;;;;;3.72;2.22;;;;;;;5.05;100.00;96852.72;1089168;27;19998;-72
2024/04/10 01:44:25;;;;;;;2.42;1.92;;;;;;;5.05;100.00;96855.34;1088928;27;20018;-72
2024/04/10 01:44:56;;;;;;;4.55;1.80;;;;;;;5.06;100.00;96849.91;1096197;26;20826;-72
2024/04/10 01:45:26;;;;;;;3.38;1.80;;;;;;;5.02;100.00;96845.31;1096091;27;20354;-72
2024/04/10 01:45:56;;;;;;;4.35;2.47;;;;;;;5.00;100.00;96845.53;1096165;26;20001;-72
2024/04/10 01:46:27;;;;;;;3.20;2.03;;;;;;;4.97;100.00;96838.94;1089186;27;20070;-72
2024/04/10 01:46:57;;;;;;;2.75;2.00;;;;;;;5.02;100.00;96840.13;1089190;27;20002;-72
2024/04/10 01:47:28;;;;;;;3.97;2.28;;;;;;;5.00;100.00;96842.09;1094420;27;20068;-72
2024/04/10 01:47:58;;;;;;;2.20;1.75;;;;;;;5.03;100.00;96839.13;1089178;27;20002;-71
2024/04/10 01:48:29;;;;;;;3.13;2.13;;;;;;;4.99;100.00;96835.31;1075108;27;19999;-72
2024/04/10 01:49:00;;;;;;;4.90;2.10;;;;;;;5.00;100.00;96832.53;1089127;27;19998;-72
2024/04/10 01:49:30;;;;;;;6.03;1.75;;;;;;;4.94;100.00;96828.91;1088590;27;20475;-72
2024/04/10 01:50:01;;;;;;;5.53;2.08;;;;;;;5.01;100.00;96841.13;1082179;27;20003;-72
2024/04/10 01:50:31;;;;;;;4.40;2.00;;;;;;;5.01;100.00;96838.53;1081883;27;20006;-71
2024/04/10 01:51:01;;;;;;;4.03;2.40;;;;;;;5.03;100.00;96839.13;1089118;27;20035;-71
2024/04/10 01:51:32;;;;;;;6.60;2.17;;;;;;;5.04;100.00;96838.94;1089125;27;20006;-70
2024/04/10 01:52:03;;;;;;;5.85;2.35;;;;;;;5.06;100.00;96839.50;1089125;26;19999;-70
2024/04/10 01:52:33;;;;;;;3.15;2.08;;;;;;;5.05;100.00;96847.53;1095991;27;20037;-72
2024/04/10 01:53:04;;;;;;;4.30;1.70;;;;;;;5.07;100.00;96848.13;1082467;27;20003;-70
2024/04/10 01:53:34;;;;;;;4.60;2.22;;;;;;;5.04;100.00;96840.72;1086497;27;20014;-70
2024/04/10 01:54:05;;;;;;;5.70;1.98;;;;;;;5.04;100.00;96845.94;1082255;27;20010;-70
2024/04/10 01:54:35;;;;;;;3.50;1.95;;;;;;;4.97;100.00;96838.13;1082059;27;20007;-70
2024/04/10 01:55:06;;;;;;;1.65;1.55;;;;;;;5.04;100.00;96853.75;1090993;27;20010;-72
2024/04/10 01:55:37;;;;;;;2.97;2.05;;;;;;;5.04;100.00;96849.34;1089557;26;20081;-70
2024/04/10 01:56:07;;;;;;;3.22;2.10;;;;;;;5.06;100.00;96856.91;1096129;27;20009;-72
2024/04/10 01:56:37;;;;;;;2.20;2.00;;;;;;;5.05;100.00;96856.13;1081960;27;20002;-71
2024/04/10 01:57:08;;;;;;;3.30;2.00;;;;;;;5.06;100.00;96854.31;1088668;27;20002;-72
2024/04/10 01:57:38;;;;;;;3.50;2.05;;;;;;;5.05;100.00;96855.34;1089181;27;19998;-72
2024/04/10 01:58:09;;;;;;;4.18;1.83;;;;;;;5.01;100.00;96869.75;1088952;27;20002;-72
2024/04/10 01:58:39;;;;;;;2.60;2.17;;;;;;;4.99;100.00;96856.91;1088924;27;20057;-73
2024/04/10 01:59:10;;;;;;;2.67;2.38;;;;;;;4.95;100.00;96856.53;1093406;26;20009;-70
2024/04/10 01:59:40;;;;;;;1.77;1.67;;;;;;;5.00;100.00;96855.13;1088317;27;19995;-71
2024/04/10 02:00:11;;;;;;;4.97;2.25;;;;;;;4.99;100.00;96862.13;1082412;27;20000;-70
2024/04/10 02:00:42;;;;;;;3.65;2.45;;;;;;;4.99;100.00;96858.72;1088666;27;20814;-71
2024/04/10 02:01:13;;;;;;;4.57;2.17;;;;;;;4.99;100.00;96862.13;1082192;27;20010;-69
2024/04/10 02:01:43;;;;;;;2.38;1.88;;;;;;;5.00;100.00;96857.72;1082398;27;20003;-70
2024/04/10 02:02:14;;;;;;;3.33;1.90;;;;;;;4.93;100.00;96842.13;1088959;27;20577;-70
2024/04/10 02:02:45;;;;;;;5.65;2.17;;;;;;;4.92;100.00;96840.50;1096080;26;20008;-70
2024/04/10 02:03:16;;;;;;;2.13;1.85;;;;;;;4.95;100.00;96846.13;1096053;27;20075;-72
2024/04/10 02:03:46;;;;;;;3.45;2.10;;;;;;;5.01;100.00;96841.13;1096152;27;20336;-70
2024/04/10 02:04:17;;;;;;;1.85;1.75;;;;;;;5.02;100.00;96846.13;1095628;26;20024;-70
2024/04/10 02:04:47;;;;;;;2.20;2.00;;;;;;;5.04;100.00;96840.72;1096226;26;20118;-70
2024/04/10 02:05:18;;;;;;;2.45;1.98;;;;;;;5.02;100.00;96840.13;1096175;27;20014;-70
2024/04/10 02:05:48;;;;;;;2.95;2.00;;;;;;;5.02;100.00;96837.53;1088761;27;20077;-70
2024/04/10 02:06:19;;;;;;;3.00;1.85;;;;;;;5.04;100.00;96843.34;1089007;27;19998;-71
2024/04/10 02:06:49;;;;;;;3.05;2.00;;;;;;;5.03;100.00;96842.53;1082124;27;20098;-70
2024/04/10 02:07:19;;;;;;;5.28;1.90;;;;;;;5.02;100.00;96845.31;1082322;27;20010;-70
2024/04/10 02:07:50;;;;;;;3.50;2.05;;;;;;;5.00;100.00;96847.31;1095870;26;20741;-70
2024/04/10 02:08:23;;;;;;;3.78;2.00;;;;;;;5.01;100.00;96849.72;1096406;26;20416;-70
2024/04/10 02:08:54;;;;;;;3.28;1.95;;;;;;;5.03;100.00;96855.53;1095998;27;19998;-70
2024/04/10 02:09:24;;;;;;;3.92;2.10;;;;;;;5.03;100.00;96855.53;1094401;27;20927;-72
2024/04/10 02:09:55;;;;;;;4.57;2.35;;;;;;;5.01;100.00;96854.13;1089089;27;20680;-70
2024/04/10 02:10:25;;;;;;;4.13;2.22;;;;;;;4.99;100.00;96854.31;1097110;26;20097;-70
2024/04/10 02:11:00;;;;;;;4.32;1.90;;;;;;;5.00;100.00;96860.31;1088834;27;20438;-71
2024/04/10 02:11:31;;;;;;;2.97;1.83;;;;;;;5.02;100.00;96858.31;1096183;27;20344;-70
2024/04/10 02:12:02;;;;;;;3.83;1.83;;;;;;;4.99;100.00;96861.31;1095853;27;20082;-70
2024/04/10 02:12:33;;;;;;;2.05;1.83;;;;;;;4.97;100.00;96857.13;1099028;26;20224;-70
2024/04/10 02:13:03;;;;;;;3.63;2.15;;;;;;;4.99;100.00;96848.31;1117657;26;20000;-70
2024/04/10 02:13:34;;;;;;;2.70;1.60;;;;;;;5.00;100.00;96853.34;1096138;26;20489;-70
2024/04/10 02:14:04;;;;;;;2.72;1.75;;;;;;;5.00;100.00;96847.31;1095742;27;20044;-70
2024/04/10 02:14:35;;;;;;;4.18;1.70;;;;;;;4.98;100.00;96844.91;1088010;27;20006;-71
2024/04/10 02:15:06;;;;;;;1.60;1.50;;;;;;;4.99;100.00;96853.53;1082237;27;20036;-70
2024/04/10 02:15:36;;;;;;;2.75;1.85;;;;;;;5.01;100.00;96848.94;1089340;27;20002;-72
2024/04/10 02:16:07;;;;;;;4.30;1.90;;;;;;;5.02;100.00;96855.72;1088958;27;20075;-70
2024/04/10 02:16:37;;;;;;;5.80;2.00;;;;;;;5.00;100.00;96853.34;1088883;27;20343;-70
2024/04/10 02:17:08;;;;;;;4.15;1.90;;;;;;;4.95;100.00;96853.91;1088990;27;20385;-71
2024/04/10 02:17:39;;;;;;;3.67;1.75;;;;;;;4.94;100.00;96851.53;1083833;27;19999;-70
2024/04/10 02:18:09;;;;;;;2.30;1.73;;;;;;;5.01;100.00;96856.72;1096401;26;19998;-70
2024/04/10 02:18:40;;;;;;;2.67;1.63;;;;;;;5.00;100.00;96852.50;1103137;26;20016;-70
2024/04/10 02:19:10;;;;;;;2.83;1.75;;;;;;;5.01;100.00;96864.53;1095962;27;20012;-72
2024/04/10 02:19:41;;;;;;;3.83;2.38;;;;;;;4.99;100.00;96856.13;1087997;27;20081;-70
2024/04/10 02:20:15;;;;;;;1.52;1.42;;;;;;;4.97;100.00;96857.13;1096006;27;20006;-70
2024/04/10 02:20:46;;;;;;;1.63;1.48;;;;;;;4.97;100.00;96859.72;1089046;27;20065;-70
2024/04/10 02:21:17;;;;;;;2.67;1.70;;;;;;;4.96;100.00;96854.72;1093182;27;20749;-70
2024/04/10 02:21:47;;;;;;;2.55;1.92;;;;;;;4.99;100.00;96859.53;1089066;27;20473;-72
2024/04/10 02:22:18;;;;;;;1.80;1.60;;;;;;;5.02;100.00;96866.94;1082379;27;20015;-72
2024/04/10 02:22:48;;;;;;;3.78;1.70;;;;;;;5.02;100.00;96859.13;1083205;27;20010;-70
2024/04/10 02:23:18;;;;;;;2.53;1.52;;;;;;;5.03;100.00;96863.34;1082384;27;20003;-70
2024/04/10 02:23:49;;;;;;;3.05;1.73;;;;;;;5.01;100.00;96859.34;1089528;27;19998;-72
2024/04/10 02:24:20;;;;;;;4.05;1.85;;;;;;;5.05;100.00;96863.13;1096671;26;20001;-72
2024/04/10 02:24:54;;;;;;;3.03;1.70;;;;;;;5.06;100.00;96862.13;1103476;26;20519;-72